This is the latest recevied weather packets stored in our database for station/object E24BD-10. If no packets are shown the sender has not sent any weather packets the latest 10 day(s).
| Time | Temp. | Humidity | Pressure | Rain* | Wind** | Luminosity | Snow |
|---|---|---|---|---|---|---|---|
| 1777901082 | 32.78° C | 62% | 998 hPa | - | - | 0 W/m² | - |
| 1777900092 | 32.78° C | 61% | 998 hPa | - | - | 0 W/m² | - |
| 1777898952 | 32.78° C | 61% | 998 hPa | - | - | 0 W/m² | - |
| 1777898085 | 32.22° C | 62% | 998 hPa | - | - | 0 W/m² | - |
| 1777897234 | 33.33° C | 60% | 997 hPa | - | - | 0 W/m² | - |
| 1777896433 | 33.33° C | 59% | 997 hPa | - | - | 0 W/m² | - |
| 1777895286 | 33.33° C | 58% | 997 hPa | - | - | 0 W/m² | - |
| 1777894376 | 32.78° C | 60% | 996 hPa | - | - | 0 W/m² | - |
| 1777893703 | 32.78° C | 59% | 996 hPa | - | - | 0 W/m² | - |
| 1777892444 | 33.33° C | 57% | 996 hPa | - | - | 0 W/m² | - |
| 1777891529 | 32.78° C | 58% | 996 hPa | - | - | 0 W/m² | - |
| 1777889715 | 32.78° C | 57% | 997 hPa | - | - | 0 W/m² | - |
| 1777888744 | 33.89° C | 53% | 997 hPa | - | - | 0 W/m² | - |
| 1777887858 | 33.89° C | 52% | 997 hPa | - | - | 0 W/m² | - |
| 1777886877 | 33.89° C | 54% | 997 hPa | - | - | 0 W/m² | - |
| 1777885988 | 34.44° C | 53% | 996 hPa | - | - | 0 W/m² | - |
| 1777885269 | 34.44° C | 52% | 996 hPa | - | - | 0 W/m² | - |
| 1777884828 | 32.78° C | 57% | 996 hPa | - | - | 0 W/m² | - |
| 1777883413 | 33.33° C | 55% | 997 hPa | - | - | 0 W/m² | - |
| 1777882506 | 33.33° C | 56% | 998 hPa | - | - | 0 W/m² | - |
| 1777881581 | 36.67° C | 51% | 997 hPa | - | - | 0 W/m² | - |
| 1777880657 | 39.44° C | 45% | 996 hPa | - | - | 0 W/m² | - |
| 1777879732 | 40° C | 45% | 996 hPa | - | - | 0 W/m² | - |
| 1777878808 | 40° C | 45% | 996 hPa | - | - | 0 W/m² | - |
| 1777877883 | 40° C | 44% | 996 hPa | - | - | 0 W/m² | - |
* Rain since midnight (hover to see other rain measurements)
** Current wind speed in m/s (hover to see current wind gust speed)